Latest Weather Observations for Ayr

IDQ60801

Issued at 7:36 pm EST Thursday 2 April 2015 (issued every 30 minutes, with the page automatically refreshed every 10 minutes)

About weather observations | Map of weather stations | Latest weather observations for QLD | Other Formats
Station Details ID: 033002 Name: AYR DPI RESEARCH STN Lat: -19.62 Lon: 147.38 Height: 17.0 m
Data from the previous 72 hours. | See also: Recent months at Ayr
Date/Time
EST
Temp
°C
App
Temp
°C
Dew
Point
Rel
Hum
%
Delta-T
°C
Wind Press
QNH
hPa
Press
MSL
hPa
Rain
since 9 am
mm
Dir
 
Spd
km/h
Gust
km/h
Spd
kts
Gust
kts
02/07:30pm 25.8 27.5 20.1 71 3.7 E 11 20 6 11 - - 0.0
02/07:00pm 26.0 26.9 20.1 70 3.8 E 15 20 8 11 - - 0.0
02/06:30pm 26.3 27.1 19.9 68 4.2 E 15 24 8 13 - - 0.0
02/06:00pm 26.9 27.7 19.8 65 4.6 ENE 15 22 8 12 - - 0.0
02/05:30pm 27.7 28.1 19.8 62 5.1 ENE 17 28 9 15 - - 0.0
02/05:00pm 28.6 29.2 19.5 58 5.9 ENE 15 24 8 13 - - 0.0
02/04:30pm 29.1 29.3 19.4 55 6.3 NE 17 28 9 15 - - 0.0
02/04:00pm 30.0 30.8 19.1 52 7.1 NE 13 20 7 11 - - 0.0
02/03:30pm 30.4 30.7 18.8 50 7.5 NE 15 22 8 12 - - 0.0
02/03:00pm 30.6 30.9 18.7 49 7.7 NE 15 24 8 13 - - 0.0
02/02:30pm 30.3 30.1 18.4 49 7.7 ENE 17 26 9 14 - - 0.0
02/02:00pm 31.0 31.2 19.4 50 7.6 ENE 17 28 9 15 - - 0.0
02/01:30pm 30.5 30.3 17.6 46 8.2 ENE 15 22 8 12 - - 0.0
02/01:00pm 30.6 30.6 17.3 45 8.4 ENE 13 20 7 11 - - 0.0
02/12:30pm 31.0 32.0 19.4 50 7.6 ENE 13 24 7 13 - - 0.0
02/12:00pm 29.5 30.2 18.0 50 7.3 ENE 11 19 6 10 - - 0.0
02/11:30am 29.1 29.7 17.6 50 7.3 ENE 11 19 6 10 - - 0.0
02/11:00am 29.5 30.1 18.6 52 7.0 ENE 13 20 7 11 - - 0.0
02/10:30am 29.8 30.5 18.9 52 7.1 E 13 24 7 13 - - 0.0
02/10:00am 28.2 28.8 18.6 56 6.2 SE 13 19 7 10 - - 0.0
02/09:30am 27.5 27.7 18.5 58 5.8 SE 15 24 8 13 - - 0.0
02/09:00am 26.8 27.3 19.2 63 4.9 SSE 15 20 8 11 - - 0.0
02/08:30am 25.7 26.3 18.6 65 4.5 S 13 19 7 10 - - 0.0
02/08:00am 24.4 25.5 18.8 71 3.6 S 11 17 6 9 - - 0.0
02/07:30am 23.0 24.9 19.8 82 2.1 SSW 9 11 5 6 - - 0.0
02/07:00am 21.6 23.8 19.3 87 1.5 SW 6 9 3 5 - - 0.0
02/06:30am 20.7 22.3 18.3 86 1.5 S 7 9 4 5 - - 0.0
02/06:00am 20.6 21.8 18.2 86 1.5 SW 9 11 5 6 - - 0.0
02/05:30am 20.8 22.4 18.2 85 1.6 S 7 9 4 5 - - 0.0
02/05:00am 20.8 22.5 18.0 84 1.7 S 6 9 3 5 - - 0.0
02/04:30am 21.3 23.1 18.3 83 1.9 SSE 6 9 3 5 - - 0.0
02/04:00am 21.7 23.3 18.3 81 2.1 S 7 11 4 6 - - 0.0
02/03:30am 21.8 23.5 18.6 82 2.0 SSE 7 9 4 5 - - 0.0
02/03:00am 22.0 23.9 19.0 83 1.9 SSE 7 9 4 5 - - 0.0
02/02:30am 22.2 24.2 19.2 83 1.9 SE 7 9 4 5 - - 0.0
02/02:00am 22.4 24.7 19.4 83 1.9 S 6 7 3 4 - - 0.0
02/01:30am 22.7 25.4 19.5 82 2.0 S 4 7 2 4 - - 0.0
02/01:00am 23.2 25.9 19.4 79 2.4 S 4 7 2 4 - - 0.0
02/12:30am 24.2 26.1 19.7 76 2.9 SSE 9 15 5 8 - - 0.0
02/12:00am 24.1 26.5 20.0 78 2.7 E 7 11 4 6 - - 0.0
 
Date/Time
EST
Temp
°C
App
Temp
°C
Dew
Point
Rel
Hum
%
Delta-T
°C
Wind Press
QNH
hPa
Press
MSL
hPa
Rain
since 9 am
mm
Dir
 
Spd
km/h
Gust
km/h
Spd
kts
Gust
kts
01/11:30pm 24.1 26.2 19.4 75 3.0 ESE 7 9 4 5 - - 0.0
01/11:00pm 24.4 25.6 19.0 72 3.4 ESE 11 15 6 8 - - 0.0
01/10:30pm 24.3 26.2 19.8 76 2.9 SSE 9 17 5 9 - - 0.0
01/10:00pm 24.4 27.1 20.7 80 2.4 S 7 9 4 5 - - 0.0
01/09:30pm 24.9 28.6 19.9 74 3.2 CALM 0 6 0 3 - - 0.0
01/09:00pm 25.2 27.2 20.0 73 3.4 ENE 9 15 5 8 - - 0.0
01/08:30pm 25.6 27.9 19.9 70 3.7 E 7 13 4 7 - - 0.0
01/08:00pm 25.7 27.7 20.0 71 3.7 E 9 13 5 7 - - 0.0
01/07:30pm 25.5 27.7 20.3 73 3.4 ENE 9 15 5 8 - - 0.0
01/07:00pm 26.0 27.3 20.1 70 3.8 E 13 17 7 9 - - 0.0
01/06:30pm 26.2 28.2 20.7 71 3.6 ENE 11 17 6 9 - - 0.0
01/06:00pm 26.5 27.8 20.1 68 4.2 ENE 13 20 7 11 - - 0.0
01/05:30pm 27.9 27.8 19.9 61 5.2 E 20 32 11 17 - - 0.0
01/05:00pm 28.2 28.2 20.2 62 5.3 ENE 20 32 11 17 - - 0.0
01/04:30pm 28.3 28.3 20.1 61 5.4 E 20 30 11 16 - - 0.0
01/04:00pm 28.2 27.8 19.4 59 5.7 ENE 20 30 11 16 - - 0.0
01/03:30pm 29.4 28.4 19.7 56 6.3 E 24 37 13 20 - - 0.0
01/03:00pm 29.6 29.2 19.3 54 6.7 ENE 20 33 11 18 - - 0.0
01/02:30pm 29.7 28.6 20.3 57 6.2 E 26 39 14 21 - - 0.0
01/02:00pm 29.7 29.2 20.0 56 6.4 ENE 22 35 12 19 - - 0.0
01/01:30pm 30.5 30.5 20.1 53 6.9 ENE 20 32 11 17 - - 0.0
01/01:00pm 30.4 30.0 19.4 51 7.2 ENE 20 28 11 15 - - 0.0
01/12:30pm 30.5 30.5 18.9 50 7.5 E 17 30 9 16 - - 0.0
01/12:00pm 30.9 30.3 18.9 48 7.8 E 20 30 11 16 - - 0.0
01/11:30am 30.1 29.8 18.2 49 7.6 E 17 26 9 14 - - 0.0
01/11:00am 29.8 29.1 18.3 50 7.4 ESE 19 28 10 15 - - 0.0
01/10:30am 28.9 27.8 17.7 50 7.1 E 20 32 11 17 - - 0.0
01/10:00am 28.3 26.7 17.5 52 6.8 ESE 22 35 12 19 - - 0.0
01/09:30am 28.1 26.7 17.9 54 6.5 ESE 22 30 12 16 - - 0.0
01/09:00am 27.0 26.8 18.6 60 5.4 ESE 17 24 9 13 - - 5.0
01/08:30am 25.9 26.4 19.3 67 4.2 S 15 20 8 11 - - 5.0
01/08:00am 25.0 26.8 19.6 72 3.5 S 9 11 5 6 - - 5.0
01/07:30am 23.8 25.5 19.3 76 2.9 S 9 11 5 6 - - 5.0
01/07:00am 22.7 24.9 19.5 82 2.0 S 7 11 4 6 - - 5.0
01/06:30am 22.1 23.6 18.9 82 2.0 S 9 13 5 7 - - 5.0
01/06:00am 22.1 23.6 18.9 82 2.0 S 9 11 5 6 - - 5.0
01/05:30am 22.3 24.3 19.1 82 2.0 S 7 11 4 6 - - 5.0
01/05:00am 22.7 24.2 18.9 79 2.4 SSE 9 13 5 7 - - 5.0
01/04:30am 23.2 24.5 19.4 79 2.4 SE 11 17 6 9 - - 5.0
01/04:00am 23.1 24.3 19.1 78 2.5 SSE 11 15 6 8 - - 5.0
01/03:30am 23.4 25.0 19.1 77 2.7 SE 9 19 5 10 - - 5.0
01/03:00am 23.6 25.0 19.5 78 2.6 SE 11 19 6 10 - - 5.0
01/02:30am 23.7 25.3 20.0 80 2.4 SE 11 20 6 11 - - 5.0
01/02:00am 23.9 26.3 20.8 83 2.0 ESE 9 15 5 8 - - 5.0
01/01:30am 22.9 26.2 20.8 88 1.4 SW 4 7 2 4 - - 5.0
01/01:00am 23.0 27.2 20.9 88 1.4 CALM 0 0 0 0 - - 5.0
01/12:30am 23.2 26.7 21.1 88 1.4 W 4 6 2 3 - - 5.0
01/12:00am 23.4 26.9 21.1 87 1.5 W 4 7 2 4 - - 5.0
 
Date/Time
EST
Temp
°C
App
Temp
°C
Dew
Point
Rel
Hum
%
Delta-T
°C
Wind Press
QNH
hPa
Press
MSL
hPa
Rain
since 9 am
mm
Dir
 
Spd
km/h
Gust
km/h
Spd
kts
Gust
kts
31/11:30pm 23.7 27.8 20.8 84 1.9 CALM 0 0 0 0 - - 5.0
31/11:00pm 23.6 27.3 20.7 84 1.9 S 2 9 1 5 - - 5.0
31/10:30pm 23.7 26.8 21.0 85 1.8 WSW 6 7 3 4 - - 5.0
31/10:00pm 24.3 27.3 21.2 83 2.0 SSW 7 9 4 5 - - 5.0
31/09:30pm 24.5 26.9 20.8 80 2.4 S 9 13 5 7 - - 5.0
31/09:00pm 24.5 26.4 21.4 83 2.0 E 13 20 7 11 - - 5.0
31/08:30pm 25.3 26.0 21.6 80 2.5 E 20 32 11 17 - - 4.8
31/08:00pm 27.0 28.0 21.1 70 3.9 E 17 26 9 14 - - 0.0
31/07:30pm 26.4 28.6 21.2 73 3.4 ENE 11 19 6 10 - - 0.0
31/07:00pm 26.4 28.5 20.9 72 3.6 ENE 11 17 6 9 - - 0.0
31/06:30pm 26.7 27.7 21.0 71 3.8 ENE 17 22 9 12 - - 0.0
31/06:00pm 27.3 27.7 20.9 68 4.2 ENE 20 32 11 17 - - 0.0
31/05:30pm 28.0 27.9 20.8 65 4.8 ENE 22 33 12 18 - - 0.0
31/05:00pm 28.7 28.6 20.7 62 5.3 E 22 33 12 18 - - 0.0
31/04:30pm 29.1 28.0 20.3 59 5.8 ENE 26 37 14 20 - - 0.0
31/04:00pm 29.8 29.4 20.9 59 5.9 ENE 24 37 13 20 - - 0.0
31/03:30pm 30.1 29.0 19.5 53 6.9 ENE 24 39 13 21 - - 0.0
31/03:00pm 30.2 28.8 19.6 53 6.9 ENE 26 37 14 20 - - 0.0
31/02:30pm 31.4 30.3 19.4 49 7.9 ENE 24 37 13 20 - - 0.0
31/02:00pm 31.5 31.3 19.8 49 7.7 ENE 20 32 11 17 - - 0.0
31/01:30pm 31.5 31.3 19.8 49 7.7 ENE 20 30 11 16 - - 0.0
31/01:00pm 31.4 31.5 20.4 52 7.3 ENE 20 30 11 16 - - 0.0
31/12:30pm 31.0 30.5 18.7 48 8.0 E 19 30 10 16 - - 0.0
31/12:00pm 30.1 30.4 19.5 53 6.9 E 17 24 9 13 - - 0.0
31/11:30am 30.5 31.1 19.5 51 7.2 E 15 24 8 13 - - 0.0
31/11:00am 30.3 30.2 19.6 52 7.0 E 19 28 10 15 - - 0.0
31/10:30am 30.2 31.3 20.4 55 6.5 E 15 22 8 12 - - 0.0
31/10:00am 28.9 29.5 19.5 57 6.1 E 15 22 8 12 - - 0.0
31/09:30am 29.3 30.3 20.2 58 6.0 SE 15 24 8 13 - - 0.0
31/09:00am 28.7 30.1 21.0 63 5.1 SE 15 20 8 11 - - 0.0
31/08:30am 27.2 28.8 20.8 68 4.2 SSE 13 19 7 10 - - 0.0
31/08:00am 26.0 27.9 20.6 72 3.5 SSE 11 15 6 8 - - 0.0
31/07:30am 24.5 26.8 20.6 79 2.5 SSE 9 13 5 7 - - 0.0
31/07:00am 22.5 24.8 19.9 85 1.7 S 7 9 4 5 - - 0.0
31/06:30am 21.7 24.3 19.3 86 1.5 SSE 4 9 2 5 - - 0.0
31/06:00am 21.6 24.1 19.0 85 1.6 SSE 4 9 2 5 - - 0.0
31/05:30am 21.8 23.8 19.2 85 1.6 SSE 7 9 4 5 - - 0.0
31/05:00am 21.9 24.1 19.3 85 1.7 SE 6 7 3 4 - - 0.0
31/04:30am 22.1 24.3 19.5 85 1.7 SE 7 9 4 5 - - 0.0
31/04:00am 22.1 24.4 19.5 85 1.7 SSE 6 9 3 5 - - 0.0
31/03:30am 22.1 24.6 19.1 83 1.9 SSE 4 7 2 4 - - 0.0
31/03:00am 22.5 24.7 19.3 82 2.0 SSE 6 7 3 4 - - 0.0
31/02:30am 22.5 24.7 19.1 81 2.2 SSE 6 9 3 5 - - 0.0
31/02:00am 23.3 25.5 19.5 79 2.4 SE 7 13 4 7 - - 0.0
31/01:30am 23.1 25.2 19.3 79 2.4 SE 7 9 4 5 - - 0.0
31/01:00am 23.3 25.5 19.7 80 2.3 SSE 7 13 4 7 - - 0.0
31/12:30am 22.9 25.0 18.9 78 2.5 S 6 7 3 4 - - 0.0
31/12:00am 23.9 26.3 19.6 77 2.8 SE 6 7 3 4 - - 0.0
 
Date/Time
EST
Temp
°C
App
Temp
°C
Dew
Point
Rel
Hum
%
Delta-T
°C
Wind Press
QNH
hPa
Press
MSL
hPa
Rain
since 9 am
mm
Dir
 
Spd
km/h
Gust
km/h
Spd
kts
Gust
kts
30/11:30pm 24.6 26.8 19.2 72 3.5 ESE 6 9 3 5 - - 0.0
30/11:00pm 25.4 27.8 20.0 72 3.5 E 7 11 4 6 - - 0.0
30/10:30pm 26.1 27.7 20.0 69 4.0 E 11 15 6 8 - - 0.0
30/10:00pm 26.0 28.1 20.1 70 3.8 E 9 15 5 8 - - 0.0
30/09:30pm 26.5 27.8 20.1 68 4.2 E 13 22 7 12 - - 0.0
30/09:00pm 26.3 28.0 20.2 69 4.0 E 11 19 6 10 - - 0.0
30/08:30pm 26.4 27.9 20.5 70 3.9 E 13 20 7 11 - - 0.0
30/08:00pm 26.4 28.1 20.9 72 3.6 E 13 20 7 11 - - 0.0

Other Formats:

Comma delimited format used in spreadsheet applications
http://www.bom.gov.au/fwo/IDQ60801/IDQ60801.95295.axf

JavaScript Object Notation format (JSON) in row-major order
http://www.bom.gov.au/fwo/IDQ60801/IDQ60801.95295.json